sensor_id;sensor_type;location;lat;lon;timestamp;temperature;humidity
15819;DHT22;8010;53.986;12.106;2024-03-06T00:02:18;5.20;99.90
15819;DHT22;8010;53.986;12.106;2024-03-06T00:04:44;4.40;99.90
15819;DHT22;8010;53.986;12.106;2024-03-06T00:07:10;5.10;99.90
15819;DHT22;8010;53.986;12.106;2024-03-06T00:09:35;4.40;99.90
15819;DHT22;8010;53.986;12.106;2024-03-06T00:12:02;4.50;99.90
15819;DHT22;8010;53.986;12.106;2024-03-06T00:14:27;4.40;99.90
15819;DHT22;8010;53.986;12.106;2024-03-06T00:16:53;4.40;99.90
15819;DHT22;8010;53.986;12.106;2024-03-06T00:19:21;4.40;99.90
15819;DHT22;8010;53.986;12.106;2024-03-06T00:21:46;4.40;99.90
15819;DHT22;8010;53.986;12.106;2024-03-06T00:24:15;4.40;99.90
15819;DHT22;8010;53.986;12.106;2024-03-06T00:26:42;4.40;99.90
15819;DHT22;8010;53.986;12.106;2024-03-06T00:29:09;5.20;99.90
15819;DHT22;8010;53.986;12.106;2024-03-06T00:31:34;4.30;99.90
15819;DHT22;8010;53.986;12.106;2024-03-06T00:34:00;4.30;99.90
15819;DHT22;8010;53.986;12.106;2024-03-06T00:36:26;5.00;99.90
15819;DHT22;8010;53.986;12.106;2024-03-06T00:38:51;4.40;99.90
15819;DHT22;8010;53.986;12.106;2024-03-06T00:41:17;5.40;99.90
15819;DHT22;8010;53.986;12.106;2024-03-06T00:43:43;4.30;99.90
15819;DHT22;8010;53.986;12.106;2024-03-06T00:46:08;4.30;99.90
15819;DHT22;8010;53.986;12.106;2024-03-06T00:48:34;4.90;99.90
15819;DHT22;8010;53.986;12.106;2024-03-06T00:50:59;4.30;99.90
15819;DHT22;8010;53.986;12.106;2024-03-06T00:53:25;5.70;99.90
15819;DHT22;8010;53.986;12.106;2024-03-06T00:55:50;4.30;99.90
15819;DHT22;8010;53.986;12.106;2024-03-06T00:58:16;4.30;99.90
15819;DHT22;8010;53.986;12.106;2024-03-06T01:00:41;4.30;99.90
15819;DHT22;8010;53.986;12.106;2024-03-06T01:03:07;5.80;99.90
15819;DHT22;8010;53.986;12.106;2024-03-06T01:05:32;4.30;99.90
15819;DHT22;8010;53.986;12.106;2024-03-06T01:07:58;4.30;99.90
15819;DHT22;8010;53.986;12.106;2024-03-06T01:10:24;4.40;99.90
15819;DHT22;8010;53.986;12.106;2024-03-06T01:12:50;4.40;99.90
15819;DHT22;8010;53.986;12.106;2024-03-06T01:15:15;4.90;99.90
15819;DHT22;8010;53.986;12.106;2024-03-06T01:17:41;4.40;99.90
15819;DHT22;8010;53.986;12.106;2024-03-06T01:20:07;4.40;99.90
15819;DHT22;8010;53.986;12.106;2024-03-06T01:22:36;4.30;99.90
15819;DHT22;8010;53.986;12.106;2024-03-06T01:25:01;4.30;99.90
15819;DHT22;8010;53.986;12.106;2024-03-06T01:27:27;4.30;99.90
15819;DHT22;8010;53.986;12.106;2024-03-06T01:29:53;4.30;99.90
15819;DHT22;8010;53.986;12.106;2024-03-06T01:32:18;4.30;99.90
15819;DHT22;8010;53.986;12.106;2024-03-06T01:34:44;4.30;99.90
15819;DHT22;8010;53.986;12.106;2024-03-06T01:37:09;4.30;99.90
15819;DHT22;8010;53.986;12.106;2024-03-06T01:39:36;5.70;99.90
15819;DHT22;8010;53.986;12.106;2024-03-06T01:42:02;5.10;99.90
15819;DHT22;8010;53.986;12.106;2024-03-06T01:44:28;4.30;99.90
15819;DHT22;8010;53.986;12.106;2024-03-06T01:46:54;4.30;99.90
15819;DHT22;8010;53.986;12.106;2024-03-06T01:49:19;4.30;99.90
15819;DHT22;8010;53.986;12.106;2024-03-06T01:51:49;4.30;99.90
15819;DHT22;8010;53.986;12.106;2024-03-06T01:54:16;4.30;99.90
15819;DHT22;8010;53.986;12.106;2024-03-06T01:56:46;5.20;99.90
15819;DHT22;8010;53.986;12.106;2024-03-06T01:59:13;4.40;99.90
15819;DHT22;8010;53.986;12.106;2024-03-06T02:01:39;4.40;99.90
15819;DHT22;8010;53.986;12.106;2024-03-06T02:04:06;4.30;99.90
15819;DHT22;8010;53.986;12.106;2024-03-06T02:06:35;4.40;99.90
15819;DHT22;8010;53.986;12.106;2024-03-06T02:09:00;4.40;99.90
15819;DHT22;8010;53.986;12.106;2024-03-06T02:11:26;4.30;99.90
15819;DHT22;8010;53.986;12.106;2024-03-06T02:13:51;4.40;99.90
15819;DHT22;8010;53.986;12.106;2024-03-06T02:16:17;4.40;99.90
15819;DHT22;8010;53.986;12.106;2024-03-06T02:18:53;4.30;99.90
15819;DHT22;8010;53.986;12.106;2024-03-06T02:21:23;4.30;99.90
15819;DHT22;8010;53.986;12.106;2024-03-06T02:23:48;4.30;99.90
15819;DHT22;8010;53.986;12.106;2024-03-06T02:26:16;4.40;99.90
15819;DHT22;8010;53.986;12.106;2024-03-06T02:28:49;5.10;99.90
15819;DHT22;8010;53.986;12.106;2024-03-06T02:31:16;4.60;99.90
15819;DHT22;8010;53.986;12.106;2024-03-06T02:33:46;4.30;99.90
15819;DHT22;8010;53.986;12.106;2024-03-06T02:36:15;4.30;99.90
15819;DHT22;8010;53.986;12.106;2024-03-06T02:38:42;4.30;99.90
15819;DHT22;8010;53.986;12.106;2024-03-06T02:41:07;4.30;99.90
15819;DHT22;8010;53.986;12.106;2024-03-06T02:43:33;4.20;99.90
15819;DHT22;8010;53.986;12.106;2024-03-06T02:45:59;4.20;99.90
15819;DHT22;8010;53.986;12.106;2024-03-06T02:48:25;4.20;99.90
15819;DHT22;8010;53.986;12.106;2024-03-06T02:50:51;4.20;99.90
15819;DHT22;8010;53.986;12.106;2024-03-06T02:53:16;4.20;99.90
15819;DHT22;8010;53.986;12.106;2024-03-06T02:55:42;4.20;99.90
15819;DHT22;8010;53.986;12.106;2024-03-06T02:58:07;4.20;99.90
15819;DHT22;8010;53.986;12.106;2024-03-06T03:00:33;4.20;99.90
15819;DHT22;8010;53.986;12.106;2024-03-06T03:02:58;4.20;99.90
15819;DHT22;8010;53.986;12.106;2024-03-06T03:05:24;4.20;99.90
15819;DHT22;8010;53.986;12.106;2024-03-06T03:07:50;4.20;99.90
15819;DHT22;8010;53.986;12.106;2024-03-06T03:10:16;4.20;99.90
15819;DHT22;8010;53.986;12.106;2024-03-06T03:12:42;4.30;99.90
15819;DHT22;8010;53.986;12.106;2024-03-06T03:15:08;4.20;99.90
15819;DHT22;8010;53.986;12.106;2024-03-06T03:17:34;4.20;99.90
15819;DHT22;8010;53.986;12.106;2024-03-06T03:20:01;4.30;99.90
15819;DHT22;8010;53.986;12.106;2024-03-06T03:22:41;4.30;99.90
15819;DHT22;8010;53.986;12.106;2024-03-06T03:25:11;4.30;99.90
15819;DHT22;8010;53.986;12.106;2024-03-06T03:27:40;4.30;99.90
15819;DHT22;8010;53.986;12.106;2024-03-06T03:30:12;4.30;99.90
15819;DHT22;8010;53.986;12.106;2024-03-06T03:32:38;4.30;99.90
15819;DHT22;8010;53.986;12.106;2024-03-06T03:35:07;4.30;99.90
15819;DHT22;8010;53.986;12.106;2024-03-06T03:37:33;4.30;99.90
15819;DHT22;8010;53.986;12.106;2024-03-06T03:39:59;4.30;99.90
15819;DHT22;8010;53.986;12.106;2024-03-06T03:42:25;4.30;99.90
15819;DHT22;8010;53.986;12.106;2024-03-06T03:44:50;4.30;99.90
15819;DHT22;8010;53.986;12.106;2024-03-06T03:47:16;4.30;99.90
15819;DHT22;8010;53.986;12.106;2024-03-06T03:49:41;4.30;99.90
15819;DHT22;8010;53.986;12.106;2024-03-06T03:52:07;4.50;99.90
15819;DHT22;8010;53.986;12.106;2024-03-06T03:54:33;4.30;99.90
15819;DHT22;8010;53.986;12.106;2024-03-06T03:56:59;4.30;99.90
15819;DHT22;8010;53.986;12.106;2024-03-06T03:59:25;4.70;99.90
15819;DHT22;8010;53.986;12.106;2024-03-06T04:01:51;4.30;99.90
15819;DHT22;8010;53.986;12.106;2024-03-06T04:04:16;4.30;99.90
15819;DHT22;8010;53.986;12.106;2024-03-06T04:06:42;4.70;99.90
15819;DHT22;8010;53.986;12.106;2024-03-06T04:09:08;4.40;99.90
15819;DHT22;8010;53.986;12.106;2024-03-06T04:11:36;4.30;99.90
15819;DHT22;8010;53.986;12.106;2024-03-06T04:14:03;4.30;99.90
15819;DHT22;8010;53.986;12.106;2024-03-06T04:16:29;4.30;99.90
15819;DHT22;8010;53.986;12.106;2024-03-06T04:18:54;4.30;99.90
15819;DHT22;8010;53.986;12.106;2024-03-06T04:21:20;4.30;99.90
15819;DHT22;8010;53.986;12.106;2024-03-06T04:23:45;4.30;99.90
15819;DHT22;8010;53.986;12.106;2024-03-06T04:26:11;4.40;99.90
15819;DHT22;8010;53.986;12.106;2024-03-06T04:28:37;4.40;99.90
15819;DHT22;8010;53.986;12.106;2024-03-06T04:31:02;4.40;99.90
15819;DHT22;8010;53.986;12.106;2024-03-06T04:33:28;4.40;99.90
15819;DHT22;8010;53.986;12.106;2024-03-06T04:35:53;4.80;99.90
15819;DHT22;8010;53.986;12.106;2024-03-06T04:38:19;4.40;99.90
15819;DHT22;8010;53.986;12.106;2024-03-06T04:40:44;4.50;99.90
15819;DHT22;8010;53.986;12.106;2024-03-06T04:43:10;4.40;99.90
15819;DHT22;8010;53.986;12.106;2024-03-06T04:45:36;4.40;99.90
15819;DHT22;8010;53.986;12.106;2024-03-06T04:48:02;4.40;99.90
15819;DHT22;8010;53.986;12.106;2024-03-06T04:50:27;4.40;99.90
15819;DHT22;8010;53.986;12.106;2024-03-06T04:52:53;4.40;99.90
15819;DHT22;8010;53.986;12.106;2024-03-06T04:55:18;4.30;99.90
15819;DHT22;8010;53.986;12.106;2024-03-06T04:57:48;4.40;99.90
15819;DHT22;8010;53.986;12.106;2024-03-06T05:00:13;4.30;99.90
15819;DHT22;8010;53.986;12.106;2024-03-06T05:02:39;4.30;99.90
15819;DHT22;8010;53.986;12.106;2024-03-06T05:05:07;4.30;99.90
15819;DHT22;8010;53.986;12.106;2024-03-06T05:07:33;4.30;99.90
15819;DHT22;8010;53.986;12.106;2024-03-06T05:09:59;5.60;99.90
15819;DHT22;8010;53.986;12.106;2024-03-06T05:12:25;4.30;99.90
15819;DHT22;8010;53.986;12.106;2024-03-06T05:14:51;4.30;99.90
15819;DHT22;8010;53.986;12.106;2024-03-06T05:17:17;4.80;99.90
15819;DHT22;8010;53.986;12.106;2024-03-06T05:19:44;4.30;99.90
15819;DHT22;8010;53.986;12.106;2024-03-06T05:22:10;5.60;99.90
15819;DHT22;8010;53.986;12.106;2024-03-06T05:24:37;4.30;99.90
15819;DHT22;8010;53.986;12.106;2024-03-06T05:27:03;4.30;99.90
15819;DHT22;8010;53.986;12.106;2024-03-06T05:29:28;4.30;99.90
15819;DHT22;8010;53.986;12.106;2024-03-06T05:31:54;4.30;99.90
15819;DHT22;8010;53.986;12.106;2024-03-06T05:34:24;5.00;99.90
15819;DHT22;8010;53.986;12.106;2024-03-06T05:36:50;4.30;99.90
15819;DHT22;8010;53.986;12.106;2024-03-06T05:39:16;5.40;99.90
15819;DHT22;8010;53.986;12.106;2024-03-06T05:41:43;4.30;99.90
15819;DHT22;8010;53.986;12.106;2024-03-06T05:44:08;4.20;99.90
15819;DHT22;8010;53.986;12.106;2024-03-06T05:46:34;4.30;99.90
15819;DHT22;8010;53.986;12.106;2024-03-06T05:48:59;4.30;99.90
15819;DHT22;8010;53.986;12.106;2024-03-06T05:51:26;4.30;99.90
15819;DHT22;8010;53.986;12.106;2024-03-06T05:53:53;4.30;99.90
15819;DHT22;8010;53.986;12.106;2024-03-06T05:56:18;4.30;99.90
15819;DHT22;8010;53.986;12.106;2024-03-06T05:58:44;4.30;99.90
15819;DHT22;8010;53.986;12.106;2024-03-06T06:01:12;5.50;99.90
15819;DHT22;8010;53.986;12.106;2024-03-06T06:03:39;5.10;99.90
15819;DHT22;8010;53.986;12.106;2024-03-06T06:06:05;4.30;99.90
15819;DHT22;8010;53.986;12.106;2024-03-06T06:08:30;4.30;99.90
15819;DHT22;8010;53.986;12.106;2024-03-06T06:10:56;4.30;99.90
15819;DHT22;8010;53.986;12.106;2024-03-06T06:13:21;4.30;99.90
15819;DHT22;8010;53.986;12.106;2024-03-06T06:15:47;4.90;99.90
15819;DHT22;8010;53.986;12.106;2024-03-06T06:18:13;4.30;99.90
15819;DHT22;8010;53.986;12.106;2024-03-06T06:20:41;4.30;99.90
15819;DHT22;8010;53.986;12.106;2024-03-06T06:23:08;4.30;99.90
15819;DHT22;8010;53.986;12.106;2024-03-06T06:25:34;4.40;99.90
15819;DHT22;8010;53.986;12.106;2024-03-06T06:28:00;5.60;99.90
15819;DHT22;8010;53.986;12.106;2024-03-06T06:30:26;5.10;99.90
15819;DHT22;8010;53.986;12.106;2024-03-06T06:32:51;4.40;99.90
15819;DHT22;8010;53.986;12.106;2024-03-06T06:35:17;4.40;99.90
15819;DHT22;8010;53.986;12.106;2024-03-06T06:37:42;4.50;99.90
15819;DHT22;8010;53.986;12.106;2024-03-06T06:40:08;4.40;99.90
15819;DHT22;8010;53.986;12.106;2024-03-06T06:42:34;4.50;99.90
15819;DHT22;8010;53.986;12.106;2024-03-06T06:45:00;4.50;99.90
15819;DHT22;8010;53.986;12.106;2024-03-06T06:47:26;4.50;99.90
15819;DHT22;8010;53.986;12.106;2024-03-06T06:49:52;4.50;99.90
15819;DHT22;8010;53.986;12.106;2024-03-06T06:52:17;4.60;99.90
15819;DHT22;8010;53.986;12.106;2024-03-06T06:54:43;4.50;99.90
15819;DHT22;8010;53.986;12.106;2024-03-06T06:57:08;4.60;99.90
15819;DHT22;8010;53.986;12.106;2024-03-06T06:59:34;4.60;99.90
15819;DHT22;8010;53.986;12.106;2024-03-06T07:02:00;4.60;99.90
15819;DHT22;8010;53.986;12.106;2024-03-06T07:04:25;4.60;99.90
15819;DHT22;8010;53.986;12.106;2024-03-06T07:06:51;4.60;99.90
15819;DHT22;8010;53.986;12.106;2024-03-06T07:09:17;4.60;99.90
15819;DHT22;8010;53.986;12.106;2024-03-06T07:11:43;4.60;99.90
15819;DHT22;8010;53.986;12.106;2024-03-06T07:14:10;4.70;99.90
15819;DHT22;8010;53.986;12.106;2024-03-06T07:16:42;4.70;99.90
15819;DHT22;8010;53.986;12.106;2024-03-06T07:19:07;4.80;99.90
15819;DHT22;8010;53.986;12.106;2024-03-06T07:21:33;4.70;99.90
15819;DHT22;8010;53.986;12.106;2024-03-06T07:23:58;6.20;99.90
15819;DHT22;8010;53.986;12.106;2024-03-06T07:26:24;4.70;99.90
15819;DHT22;8010;53.986;12.106;2024-03-06T07:28:51;4.80;99.90
15819;DHT22;8010;53.986;12.106;2024-03-06T07:31:18;4.80;99.90
15819;DHT22;8010;53.986;12.106;2024-03-06T07:33:43;4.80;99.90
15819;DHT22;8010;53.986;12.106;2024-03-06T07:36:09;5.60;99.90
15819;DHT22;8010;53.986;12.106;2024-03-06T07:38:34;4.90;99.90
15819;DHT22;8010;53.986;12.106;2024-03-06T07:41:00;4.90;99.90
15819;DHT22;8010;53.986;12.106;2024-03-06T07:43:25;4.90;99.90
15819;DHT22;8010;53.986;12.106;2024-03-06T07:45:52;4.90;99.90
15819;DHT22;8010;53.986;12.106;2024-03-06T07:48:17;4.90;99.90
15819;DHT22;8010;53.986;12.106;2024-03-06T07:50:43;5.00;99.90
15819;DHT22;8010;53.986;12.106;2024-03-06T07:53:08;5.00;99.90
15819;DHT22;8010;53.986;12.106;2024-03-06T07:55:34;5.00;99.90
15819;DHT22;8010;53.986;12.106;2024-03-06T07:57:59;5.00;99.90
15819;DHT22;8010;53.986;12.106;2024-03-06T08:00:25;5.00;99.90
15819;DHT22;8010;53.986;12.106;2024-03-06T08:02:50;6.40;99.90
15819;DHT22;8010;53.986;12.106;2024-03-06T08:05:16;6.60;99.90
15819;DHT22;8010;53.986;12.106;2024-03-06T08:07:42;5.60;99.90
15819;DHT22;8010;53.986;12.106;2024-03-06T08:10:12;5.10;99.90
15819;DHT22;8010;53.986;12.106;2024-03-06T08:12:42;6.20;99.90
15819;DHT22;8010;53.986;12.106;2024-03-06T08:15:10;5.10;99.90
15819;DHT22;8010;53.986;12.106;2024-03-06T08:17:39;6.40;99.90
15819;DHT22;8010;53.986;12.106;2024-03-06T08:20:07;5.20;99.90
15819;DHT22;8010;53.986;12.106;2024-03-06T08:22:40;5.20;99.90
15819;DHT22;8010;53.986;12.106;2024-03-06T08:25:07;5.30;99.90
15819;DHT22;8010;53.986;12.106;2024-03-06T08:27:37;5.30;99.90
15819;DHT22;8010;53.986;12.106;2024-03-06T08:30:03;5.30;99.90
15819;DHT22;8010;53.986;12.106;2024-03-06T08:32:35;5.30;99.90
15819;DHT22;8010;53.986;12.106;2024-03-06T08:35:03;5.40;99.90
15819;DHT22;8010;53.986;12.106;2024-03-06T08:37:34;5.40;99.90
15819;DHT22;8010;53.986;12.106;2024-03-06T08:40:00;5.40;99.90
15819;DHT22;8010;53.986;12.106;2024-03-06T08:42:26;5.50;99.90
15819;DHT22;8010;53.986;12.106;2024-03-06T08:44:52;5.40;99.90
15819;DHT22;8010;53.986;12.106;2024-03-06T08:47:18;5.40;99.90
15819;DHT22;8010;53.986;12.106;2024-03-06T08:49:43;5.50;99.90
15819;DHT22;8010;53.986;12.106;2024-03-06T08:52:09;5.30;99.90
15819;DHT22;8010;53.986;12.106;2024-03-06T08:54:35;5.40;99.90
15819;DHT22;8010;53.986;12.106;2024-03-06T08:57:01;5.40;99.90
15819;DHT22;8010;53.986;12.106;2024-03-06T08:59:28;5.40;99.90
15819;DHT22;8010;53.986;12.106;2024-03-06T09:01:55;6.10;99.90
15819;DHT22;8010;53.986;12.106;2024-03-06T09:04:21;5.30;99.90
15819;DHT22;8010;53.986;12.106;2024-03-06T09:06:47;5.40;99.90
15819;DHT22;8010;53.986;12.106;2024-03-06T09:09:14;5.40;99.90
15819;DHT22;8010;53.986;12.106;2024-03-06T09:11:40;5.40;99.90
15819;DHT22;8010;53.986;12.106;2024-03-06T09:14:07;5.40;99.90
15819;DHT22;8010;53.986;12.106;2024-03-06T09:16:34;5.40;99.90
15819;DHT22;8010;53.986;12.106;2024-03-06T09:19:00;5.50;99.90
15819;DHT22;8010;53.986;12.106;2024-03-06T09:21:25;5.50;99.90
15819;DHT22;8010;53.986;12.106;2024-03-06T09:23:51;7.10;99.90
15819;DHT22;8010;53.986;12.106;2024-03-06T09:26:17;5.60;99.90
15819;DHT22;8010;53.986;12.106;2024-03-06T09:28:42;6.80;99.90
15819;DHT22;8010;53.986;12.106;2024-03-06T09:31:08;5.70;99.90
15819;DHT22;8010;53.986;12.106;2024-03-06T09:33:33;5.80;99.90
15819;DHT22;8010;53.986;12.106;2024-03-06T09:35:59;5.90;99.90
15819;DHT22;8010;53.986;12.106;2024-03-06T09:38:26;6.10;99.90
15819;DHT22;8010;53.986;12.106;2024-03-06T09:40:51;6.20;99.90
15819;DHT22;8010;53.986;12.106;2024-03-06T09:43:17;7.20;99.90
15819;DHT22;8010;53.986;12.106;2024-03-06T09:45:47;6.90;99.90
15819;DHT22;8010;53.986;12.106;2024-03-06T09:48:13;7.40;99.90
15819;DHT22;8010;53.986;12.106;2024-03-06T09:50:43;7.60;99.90
15819;DHT22;8010;53.986;12.106;2024-03-06T09:53:12;7.70;99.90
15819;DHT22;8010;53.986;12.106;2024-03-06T09:59:01;7.50;99.90
15819;DHT22;8010;53.986;12.106;2024-03-06T10:01:27;7.40;99.90
15819;DHT22;8010;53.986;12.106;2024-03-06T10:03:54;8.40;99.90
15819;DHT22;8010;53.986;12.106;2024-03-06T10:06:20;7.30;99.90
15819;DHT22;8010;53.986;12.106;2024-03-06T10:08:45;7.10;99.90
15819;DHT22;8010;53.986;12.106;2024-03-06T10:11:12;7.10;99.90
15819;DHT22;8010;53.986;12.106;2024-03-06T10:13:37;7.10;99.90
15819;DHT22;8010;53.986;12.106;2024-03-06T10:16:04;7.80;99.90
15819;DHT22;8010;53.986;12.106;2024-03-06T10:18:33;7.10;99.90
15819;DHT22;8010;53.986;12.106;2024-03-06T10:20:59;7.60;99.90
15819;DHT22;8010;53.986;12.106;2024-03-06T10:23:26;7.20;99.90
15819;DHT22;8010;53.986;12.106;2024-03-06T10:25:54;8.50;99.90
15819;DHT22;8010;53.986;12.106;2024-03-06T10:28:21;7.10;99.90
15819;DHT22;8010;53.986;12.106;2024-03-06T10:30:51;8.40;99.90
15819;DHT22;8010;53.986;12.106;2024-03-06T10:33:18;7.20;99.90
15819;DHT22;8010;53.986;12.106;2024-03-06T10:35:47;7.20;99.90
15819;DHT22;8010;53.986;12.106;2024-03-06T10:38:20;7.20;99.90
15819;DHT22;8010;53.986;12.106;2024-03-06T10:40:46;7.30;99.90
15819;DHT22;8010;53.986;12.106;2024-03-06T10:43:16;7.40;99.90
15819;DHT22;8010;53.986;12.106;2024-03-06T10:45:50;7.40;99.90
15819;DHT22;8010;53.986;12.106;2024-03-06T10:48:19;7.40;99.90
15819;DHT22;8010;53.986;12.106;2024-03-06T10:50:46;8.40;99.90
15819;DHT22;8010;53.986;12.106;2024-03-06T10:53:14;7.60;99.90
15819;DHT22;8010;53.986;12.106;2024-03-06T10:55:42;8.70;99.90
15819;DHT22;8010;53.986;12.106;2024-03-06T10:58:08;8.50;99.90
15819;DHT22;8010;53.986;12.106;2024-03-06T11:00:42;7.80;99.90
15819;DHT22;8010;53.986;12.106;2024-03-06T11:03:09;7.90;99.90
15819;DHT22;8010;53.986;12.106;2024-03-06T11:05:38;8.10;99.90
15819;DHT22;8010;53.986;12.106;2024-03-06T11:10:33;8.10;99.90
15819;DHT22;8010;53.986;12.106;2024-03-06T11:13:03;8.20;99.90
15819;DHT22;8010;53.986;12.106;2024-03-06T11:15:30;8.50;99.90
15819;DHT22;8010;53.986;12.106;2024-03-06T11:17:56;9.30;99.90
15819;DHT22;8010;53.986;12.106;2024-03-06T11:20:22;8.90;99.90
15819;DHT22;8010;53.986;12.106;2024-03-06T11:28:11;8.80;99.90
15819;DHT22;8010;53.986;12.106;2024-03-06T11:31:00;8.70;99.90
15819;DHT22;8010;53.986;12.106;2024-03-06T11:33:38;8.60;99.90
15819;DHT22;8010;53.986;12.106;2024-03-06T11:36:18;8.40;99.90
15819;DHT22;8010;53.986;12.106;2024-03-06T11:39:02;8.40;99.90
15819;DHT22;8010;53.986;12.106;2024-03-06T11:41:30;8.30;99.90
15819;DHT22;8010;53.986;12.106;2024-03-06T11:43:57;8.20;99.90
15819;DHT22;8010;53.986;12.106;2024-03-06T11:46:43;8.20;99.90
15819;DHT22;8010;53.986;12.106;2024-03-06T11:49:29;8.30;99.90
15819;DHT22;8010;53.986;12.106;2024-03-06T11:51:59;8.30;99.90
15819;DHT22;8010;53.986;12.106;2024-03-06T11:54:25;8.50;99.90
15819;DHT22;8010;53.986;12.106;2024-03-06T11:56:57;8.60;99.90
15819;DHT22;8010;53.986;12.106;2024-03-06T11:59:32;9.40;99.90
15819;DHT22;8010;53.986;12.106;2024-03-06T12:02:03;9.30;99.90
15819;DHT22;8010;53.986;12.106;2024-03-06T12:04:33;9.90;99.90
15819;DHT22;8010;53.986;12.106;2024-03-06T12:07:00;10.40;99.90
15819;DHT22;8010;53.986;12.106;2024-03-06T12:09:30;10.90;99.90
15819;DHT22;8010;53.986;12.106;2024-03-06T12:11:56;11.40;99.90
15819;DHT22;8010;53.986;12.106;2024-03-06T12:14:22;11.80;99.90
15819;DHT22;8010;53.986;12.106;2024-03-06T12:17:01;11.80;99.90
15819;DHT22;8010;53.986;12.106;2024-03-06T12:19:34;12.20;99.90
15819;DHT22;8010;53.986;12.106;2024-03-06T12:22:01;12.10;99.90
15819;DHT22;8010;53.986;12.106;2024-03-06T12:24:29;12.10;99.90
15819;DHT22;8010;53.986;12.106;2024-03-06T12:27:05;12.20;99.90
15819;DHT22;8010;53.986;12.106;2024-03-06T12:29:32;12.50;99.90
15819;DHT22;8010;53.986;12.106;2024-03-06T12:31:58;12.90;99.90
15819;DHT22;8010;53.986;12.106;2024-03-06T12:34:24;13.20;99.90
15819;DHT22;8010;53.986;12.106;2024-03-06T12:36:50;13.50;99.90
15819;DHT22;8010;53.986;12.106;2024-03-06T12:39:16;13.50;99.90
15819;DHT22;8010;53.986;12.106;2024-03-06T12:41:48;13.40;99.90
15819;DHT22;8010;53.986;12.106;2024-03-06T12:44:14;13.40;99.90
15819;DHT22;8010;53.986;12.106;2024-03-06T12:46:40;13.80;99.90
15819;DHT22;8010;53.986;12.106;2024-03-06T12:49:06;13.80;99.90
15819;DHT22;8010;53.986;12.106;2024-03-06T12:51:31;13.80;99.90
15819;DHT22;8010;53.986;12.106;2024-03-06T12:53:58;13.80;99.90
15819;DHT22;8010;53.986;12.106;2024-03-06T12:56:23;13.60;99.90
15819;DHT22;8010;53.986;12.106;2024-03-06T12:58:51;13.60;99.90
15819;DHT22;8010;53.986;12.106;2024-03-06T13:01:16;13.40;99.90
15819;DHT22;8010;53.986;12.106;2024-03-06T13:03:42;13.00;99.90
15819;DHT22;8010;53.986;12.106;2024-03-06T13:06:07;12.80;99.90
15819;DHT22;8010;53.986;12.106;2024-03-06T13:08:33;12.50;99.90
15819;DHT22;8010;53.986;12.106;2024-03-06T13:10:58;12.10;99.90
15819;DHT22;8010;53.986;12.106;2024-03-06T13:13:25;11.80;99.90
15819;DHT22;8010;53.986;12.106;2024-03-06T13:15:51;11.60;99.90
15819;DHT22;8010;53.986;12.106;2024-03-06T13:18:17;11.40;99.90
15819;DHT22;8010;53.986;12.106;2024-03-06T13:20:43;11.30;99.90
15819;DHT22;8010;53.986;12.106;2024-03-06T13:23:09;11.20;99.90
15819;DHT22;8010;53.986;12.106;2024-03-06T13:25:35;11.10;99.90
15819;DHT22;8010;53.986;12.106;2024-03-06T13:28:01;11.00;99.90
15819;DHT22;8010;53.986;12.106;2024-03-06T13:30:28;12.40;99.90
15819;DHT22;8010;53.986;12.106;2024-03-06T13:32:53;11.20;99.90
15819;DHT22;8010;53.986;12.106;2024-03-06T13:35:19;11.40;99.90
15819;DHT22;8010;53.986;12.106;2024-03-06T13:37:46;11.80;99.90
15819;DHT22;8010;53.986;12.106;2024-03-06T13:40:12;12.30;99.90
15819;DHT22;8010;53.986;12.106;2024-03-06T13:42:39;12.70;99.90
15819;DHT22;8010;53.986;12.106;2024-03-06T13:45:05;12.90;99.90
15819;DHT22;8010;53.986;12.106;2024-03-06T13:47:40;12.90;99.90
15819;DHT22;8010;53.986;12.106;2024-03-06T13:50:10;12.70;99.90
15819;DHT22;8010;53.986;12.106;2024-03-06T13:52:37;12.40;99.90
15819;DHT22;8010;53.986;12.106;2024-03-06T13:55:03;12.10;99.90
15819;DHT22;8010;53.986;12.106;2024-03-06T13:57:37;11.90;99.90
15819;DHT22;8010;53.986;12.106;2024-03-06T14:00:10;11.70;99.90
15819;DHT22;8010;53.986;12.106;2024-03-06T14:02:45;11.50;99.90
15819;DHT22;8010;53.986;12.106;2024-03-06T14:05:11;11.40;99.90
15819;DHT22;8010;53.986;12.106;2024-03-06T14:07:38;11.30;99.90
15819;DHT22;8010;53.986;12.106;2024-03-06T14:10:04;11.30;99.90
15819;DHT22;8010;53.986;12.106;2024-03-06T14:12:30;11.00;99.90
15819;DHT22;8010;53.986;12.106;2024-03-06T14:14:55;10.90;99.90
15819;DHT22;8010;53.986;12.106;2024-03-06T14:17:21;10.80;99.90
15819;DHT22;8010;53.986;12.106;2024-03-06T14:19:46;10.80;99.90
15819;DHT22;8010;53.986;12.106;2024-03-06T14:22:12;10.60;99.90
15819;DHT22;8010;53.986;12.106;2024-03-06T14:24:37;10.60;99.90
15819;DHT22;8010;53.986;12.106;2024-03-06T14:27:03;10.60;99.90
15819;DHT22;8010;53.986;12.106;2024-03-06T14:29:32;10.50;99.90
15819;DHT22;8010;53.986;12.106;2024-03-06T14:31:57;10.50;99.90
15819;DHT22;8010;53.986;12.106;2024-03-06T14:34:23;10.50;99.90
15819;DHT22;8010;53.986;12.106;2024-03-06T14:36:51;10.50;99.90
15819;DHT22;8010;53.986;12.106;2024-03-06T14:39:17;10.40;99.90
15819;DHT22;8010;53.986;12.106;2024-03-06T14:41:42;10.30;99.90
15819;DHT22;8010;53.986;12.106;2024-03-06T14:44:10;10.10;99.90
15819;DHT22;8010;53.986;12.106;2024-03-06T14:46:36;10.00;99.90
15819;DHT22;8010;53.986;12.106;2024-03-06T14:49:01;10.00;99.90
15819;DHT22;8010;53.986;12.106;2024-03-06T14:51:28;10.00;99.90
15819;DHT22;8010;53.986;12.106;2024-03-06T14:53:53;10.00;99.90
15819;DHT22;8010;53.986;12.106;2024-03-06T14:56:19;10.00;99.90
15819;DHT22;8010;53.986;12.106;2024-03-06T14:58:47;9.90;99.90
15819;DHT22;8010;53.986;12.106;2024-03-06T15:01:12;9.90;99.90
15819;DHT22;8010;53.986;12.106;2024-03-06T15:03:38;9.80;99.90
15819;DHT22;8010;53.986;12.106;2024-03-06T15:06:05;9.70;99.90
15819;DHT22;8010;53.986;12.106;2024-03-06T15:08:32;9.50;99.90
15819;DHT22;8010;53.986;12.106;2024-03-06T15:10:58;9.40;99.90
15819;DHT22;8010;53.986;12.106;2024-03-06T15:13:23;9.20;99.90
15819;DHT22;8010;53.986;12.106;2024-03-06T15:15:49;9.10;99.90
15819;DHT22;8010;53.986;12.106;2024-03-06T15:18:15;9.00;99.90
15819;DHT22;8010;53.986;12.106;2024-03-06T15:20:41;8.90;99.90
15819;DHT22;8010;53.986;12.106;2024-03-06T15:23:07;8.90;99.90
15819;DHT22;8010;53.986;12.106;2024-03-06T15:25:32;8.80;99.90
15819;DHT22;8010;53.986;12.106;2024-03-06T15:27:58;8.80;99.90
15819;DHT22;8010;53.986;12.106;2024-03-06T15:30:24;8.70;99.90
15819;DHT22;8010;53.986;12.106;2024-03-06T15:32:49;8.70;99.90
15819;DHT22;8010;53.986;12.106;2024-03-06T15:35:15;8.70;99.90
15819;DHT22;8010;53.986;12.106;2024-03-06T15:37:40;8.70;99.90
15819;DHT22;8010;53.986;12.106;2024-03-06T15:40:06;8.80;99.90
15819;DHT22;8010;53.986;12.106;2024-03-06T15:42:35;8.80;99.90
15819;DHT22;8010;53.986;12.106;2024-03-06T15:45:01;8.80;99.90
15819;DHT22;8010;53.986;12.106;2024-03-06T15:47:27;8.80;99.90
15819;DHT22;8010;53.986;12.106;2024-03-06T15:49:53;8.80;99.90
15819;DHT22;8010;53.986;12.106;2024-03-06T15:52:20;8.80;99.90